createdAt,value
2023-03-29T00:02:29.116Z,45.85
2023-03-29T00:04:55.502Z,45.39
2023-03-29T00:07:21.873Z,46.23
2023-03-29T00:09:48.189Z,46.32
2023-03-29T00:15:08.629Z,45.92
2023-03-29T00:17:37.877Z,45.59
2023-03-29T00:20:04.236Z,45.27
2023-03-29T00:22:33.350Z,45.94
2023-03-29T00:24:59.685Z,45.73
2023-03-29T00:30:12.839Z,45.91
2023-03-29T00:32:41.997Z,45.57
2023-03-29T00:35:08.358Z,45.40
2023-03-29T00:37:34.683Z,46.23
2023-03-29T00:40:00.978Z,45.45
2023-03-29T00:45:24.238Z,46.40
2023-03-29T00:47:53.384Z,45.36
2023-03-29T00:50:19.775Z,45.07
2023-03-29T00:52:48.896Z,46.03
2023-03-29T00:55:15.262Z,45.60
2023-03-29T01:00:35.301Z,45.60
2023-03-29T01:03:01.701Z,46.18
2023-03-29T01:05:28.068Z,46.38
2023-03-29T01:07:57.164Z,46.16
2023-03-29T01:10:23.496Z,46.18
2023-03-29T01:15:46.505Z,45.61
2023-03-29T01:18:12.908Z,45.38
2023-03-29T01:20:42.007Z,46.52
2023-03-29T01:23:08.327Z,47.15
2023-03-29T01:25:34.668Z,46.01
2023-03-29T01:30:44.726Z,45.72
2023-03-29T01:33:11.055Z,45.94
2023-03-29T01:35:37.538Z,47.12
2023-03-29T01:38:03.931Z,45.37
2023-03-29T01:40:30.245Z,46.15
2023-03-29T01:45:50.147Z,46.03
2023-03-29T01:48:16.504Z,46.12
2023-03-29T01:50:42.833Z,46.42
2023-03-29T01:53:09.198Z,45.48
2023-03-29T01:55:35.495Z,46.04
2023-03-29T02:00:55.782Z,45.43
2023-03-29T02:03:25.065Z,45.64
2023-03-29T02:05:51.489Z,46.29
2023-03-29T02:08:17.866Z,45.57
2023-03-29T02:10:46.981Z,46.08
2023-03-29T02:16:07.010Z,46.18
2023-03-29T02:18:33.355Z,45.59
2023-03-29T02:21:02.645Z,45.63
2023-03-29T02:23:29.152Z,45.41
2023-03-29T02:25:55.496Z,45.50
2023-03-29T02:31:05.716Z,46.14
2023-03-29T02:33:32.138Z,46.09
2023-03-29T02:35:58.528Z,46.19
2023-03-29T02:38:24.883Z,46.41
2023-03-29T02:40:54.022Z,46.10
2023-03-29T02:46:04.087Z,47.09
2023-03-29T02:48:30.439Z,45.61
2023-03-29T02:50:56.766Z,46.79
2023-03-29T02:53:23.111Z,45.73
2023-03-29T02:55:52.254Z,45.79
2023-03-29T02:58:18.601Z,45.76
2023-03-29T03:00:44.969Z,46.30
2023-03-29T03:03:11.412Z,46.15
2023-03-29T03:05:37.840Z,46.24
2023-03-29T03:08:07.017Z,46.00
2023-03-29T03:10:33.358Z,46.16
2023-03-29T03:13:02.449Z,45.41
2023-03-29T03:15:28.806Z,45.95
2023-03-29T03:17:55.226Z,45.58
2023-03-29T03:20:21.707Z,45.68
2023-03-29T03:22:48.030Z,45.48
2023-03-29T03:25:14.385Z,45.56
2023-03-29T03:27:40.730Z,45.53
2023-03-29T03:30:07.067Z,45.95
2023-03-29T03:32:33.401Z,46.02
2023-03-29T03:34:59.792Z,45.49
2023-03-29T03:37:26.138Z,45.20
2023-03-29T03:39:52.483Z,45.87
2023-03-29T03:42:18.922Z,45.62
2023-03-29T03:44:45.213Z,45.44
2023-03-29T03:47:11.555Z,45.02
2023-03-29T03:49:37.891Z,46.34
2023-03-29T03:52:07.027Z,45.81
2023-03-29T03:54:33.349Z,45.72
2023-03-29T03:56:59.754Z,45.84
2023-03-29T03:59:26.146Z,46.16
2023-03-29T04:04:36.394Z,45.86
2023-03-29T04:07:02.780Z,45.48
2023-03-29T04:09:29.226Z,46.82
2023-03-29T04:11:55.555Z,46.11
2023-03-29T04:14:21.891Z,45.32
2023-03-29T04:19:42.434Z,45.74
2023-03-29T04:22:08.796Z,46.16
2023-03-29T04:24:37.936Z,46.11
2023-03-29T04:27:07.072Z,45.66
2023-03-29T04:29:33.408Z,45.52
2023-03-29T04:34:56.245Z,45.79
2023-03-29T04:37:22.578Z,45.48
2023-03-29T04:39:49.088Z,46.12
2023-03-29T04:42:15.491Z,45.41
2023-03-29T04:44:41.862Z,46.21
2023-03-29T04:50:02.224Z,46.01
2023-03-29T04:52:28.627Z,46.02
2023-03-29T04:54:54.941Z,45.76
2023-03-29T04:57:21.310Z,45.36
2023-03-29T04:59:47.715Z,46.29
2023-03-29T05:04:57.864Z,45.76
2023-03-29T05:07:24.184Z,45.05
2023-03-29T05:09:50.573Z,45.17
2023-03-29T05:12:16.874Z,45.68
2023-03-29T05:14:43.216Z,45.22
2023-03-29T05:20:03.358Z,44.96
2023-03-29T05:22:29.726Z,45.06
2023-03-29T05:24:56.046Z,45.06
2023-03-29T05:27:22.502Z,45.09
2023-03-29T05:29:48.994Z,45.74
2023-03-29T05:35:10.289Z,45.07
2023-03-29T05:37:37.592Z,45.59
2023-03-29T05:40:05.577Z,45.28
2023-03-29T05:42:32.822Z,45.06
2023-03-29T05:44:59.208Z,45.30
2023-03-29T05:50:10.081Z,45.20
2023-03-29T05:52:37.453Z,45.44
2023-03-29T05:55:04.964Z,44.31
2023-03-29T05:57:31.491Z,44.70
2023-03-29T05:59:59.766Z,44.27
2023-03-29T06:05:11.486Z,44.65
2023-03-29T06:07:38.774Z,44.25
2023-03-29T06:10:06.243Z,44.25
2023-03-29T06:12:33.975Z,44.74
2023-03-29T06:15:00.725Z,44.38
2023-03-29T06:20:22.172Z,44.42
2023-03-29T06:22:48.974Z,44.67
2023-03-29T06:25:16.267Z,44.22
2023-03-29T06:27:43.754Z,44.75
2023-03-29T06:30:11.017Z,43.97
2023-03-29T06:35:24.803Z,42.98
2023-03-29T06:37:51.148Z,43.56
2023-03-29T06:40:18.660Z,42.88
2023-03-29T06:42:45.142Z,42.19
2023-03-29T06:45:11.630Z,42.80
2023-03-29T06:50:32.264Z,41.93
2023-03-29T06:52:58.789Z,42.03
2023-03-29T06:55:25.294Z,41.82
2023-03-29T06:57:52.761Z,41.14
2023-03-29T07:00:20.188Z,41.19
2023-03-29T07:05:41.442Z,40.20
2023-03-29T07:08:07.934Z,40.48
2023-03-29T07:10:34.396Z,39.95
2023-03-29T07:13:01.843Z,40.20
2023-03-29T07:15:28.297Z,40.01
2023-03-29T07:20:40.799Z,40.16
2023-03-29T07:23:07.249Z,39.79
2023-03-29T07:25:33.719Z,39.20
2023-03-29T07:28:00.172Z,39.63
2023-03-29T07:30:27.314Z,39.30
2023-03-29T07:32:55.014Z,39.29
2023-03-29T07:35:22.414Z,38.60
2023-03-29T07:37:50.688Z,38.40
2023-03-29T07:40:17.230Z,39.38
2023-03-29T07:42:44.622Z,38.69
2023-03-29T07:45:11.918Z,39.50
2023-03-29T07:47:38.463Z,38.47
2023-03-29T07:50:05.971Z,38.83
2023-03-29T07:52:33.300Z,38.86
2023-03-29T07:55:02.476Z,38.67
2023-03-29T07:57:28.987Z,39.44
2023-03-29T07:59:55.500Z,38.60
2023-03-29T08:02:22.761Z,39.33
2023-03-29T08:04:49.246Z,39.05
2023-03-29T08:07:18.449Z,38.52
2023-03-29T08:09:45.269Z,39.81
2023-03-29T08:12:11.632Z,38.97
2023-03-29T08:14:37.965Z,39.48
2023-03-29T08:17:04.357Z,39.06
2023-03-29T08:19:30.809Z,38.40
2023-03-29T08:21:58.227Z,39.25
2023-03-29T08:24:24.622Z,39.07
2023-03-29T08:26:50.968Z,39.55
2023-03-29T08:29:18.181Z,38.85
2023-03-29T08:31:44.603Z,38.81
2023-03-29T08:34:10.956Z,39.13
2023-03-29T08:36:37.308Z,38.48
2023-03-29T08:39:03.697Z,38.77
2023-03-29T08:41:30.058Z,38.00
2023-03-29T08:43:56.474Z,38.40
2023-03-29T08:46:22.822Z,38.51
2023-03-29T08:48:49.220Z,37.91
2023-03-29T08:54:09.498Z,38.05
2023-03-29T08:56:35.861Z,38.61
2023-03-29T08:59:02.198Z,37.67
2023-03-29T09:01:28.608Z,38.13
2023-03-29T09:03:55.069Z,38.55
2023-03-29T09:09:15.482Z,38.89
2023-03-29T09:11:41.804Z,38.72
2023-03-29T09:14:08.150Z,37.83
2023-03-29T09:16:34.608Z,38.13
2023-03-29T09:19:01.059Z,36.87
2023-03-29T09:24:14.203Z,33.98
2023-03-29T09:26:40.508Z,37.36
2023-03-29T09:29:09.447Z,37.58
2023-03-29T09:31:36.020Z,37.10
2023-03-29T09:34:02.403Z,37.76
2023-03-29T09:39:12.855Z,37.38
2023-03-29T09:41:39.179Z,37.28
2023-03-29T09:44:05.539Z,37.11
2023-03-29T09:46:31.869Z,36.31
2023-03-29T09:48:58.182Z,35.89
2023-03-29T09:54:18.501Z,35.42
2023-03-29T09:56:44.872Z,35.01
2023-03-29T09:59:11.272Z,35.07
2023-03-29T10:01:37.644Z,34.92
2023-03-29T10:04:04.041Z,35.23
2023-03-29T10:09:24.208Z,34.45
2023-03-29T10:11:50.577Z,34.69
2023-03-29T10:14:16.960Z,34.22
2023-03-29T10:16:43.363Z,34.55
2023-03-29T10:19:09.755Z,34.46
2023-03-29T10:24:58.478Z,34.29
2023-03-29T10:27:24.847Z,34.03
2023-03-29T10:29:51.197Z,33.93
2023-03-29T10:32:18.412Z,34.07
2023-03-29T10:34:44.781Z,33.88
2023-03-29T10:40:04.882Z,33.39
2023-03-29T10:42:31.278Z,33.96
2023-03-29T10:44:57.634Z,33.28
2023-03-29T10:47:24.014Z,33.65
2023-03-29T10:49:51.001Z,33.26
2023-03-29T10:55:01.531Z,33.31
2023-03-29T10:57:27.969Z,33.04
2023-03-29T10:59:54.356Z,33.37
2023-03-29T11:02:20.733Z,33.38
2023-03-29T11:04:47.109Z,32.82
2023-03-29T11:10:07.540Z,32.86
2023-03-29T11:12:33.914Z,32.67
2023-03-29T11:15:00.254Z,32.65
2023-03-29T11:17:26.638Z,32.48
2023-03-29T11:19:53.060Z,32.80
2023-03-29T11:25:03.282Z,32.19
2023-03-29T11:27:29.659Z,32.50
2023-03-29T11:29:56.043Z,32.09
2023-03-29T11:32:22.387Z,32.30
2023-03-29T11:34:48.742Z,32.47
2023-03-29T11:40:09.176Z,32.23
2023-03-29T11:42:35.500Z,31.78
2023-03-29T11:45:01.872Z,31.91
2023-03-29T11:47:28.265Z,32.11
2023-03-29T11:49:54.604Z,31.68
2023-03-29T11:55:14.627Z,31.72
2023-03-29T11:57:41.073Z,31.82
2023-03-29T12:00:07.469Z,31.59
2023-03-29T12:02:33.932Z,31.79
2023-03-29T12:05:00.402Z,31.60
2023-03-29T12:07:26.762Z,31.17
2023-03-29T12:09:53.129Z,31.62
2023-03-29T12:12:19.468Z,31.26
2023-03-29T12:14:45.791Z,31.37
2023-03-29T12:17:12.162Z,31.38
2023-03-29T12:19:41.744Z,31.42
2023-03-29T12:22:09.781Z,31.51
2023-03-29T12:24:36.325Z,31.43
2023-03-29T12:27:02.713Z,31.28
2023-03-29T12:29:29.033Z,31.35
2023-03-29T12:31:55.507Z,31.34
2023-03-29T12:34:21.955Z,31.25
2023-03-29T12:36:48.314Z,31.39
2023-03-29T12:39:14.744Z,31.46
2023-03-29T12:41:41.081Z,31.42
2023-03-29T12:44:09.536Z,30.97
2023-03-29T12:46:37.167Z,31.28
2023-03-29T12:49:03.622Z,31.30
2023-03-29T12:51:29.947Z,31.47
2023-03-29T12:53:56.296Z,31.10
2023-03-29T12:56:22.677Z,31.45
2023-03-29T12:58:49.012Z,31.05
2023-03-29T13:01:16.361Z,31.40
2023-03-29T13:03:42.761Z,30.84
2023-03-29T13:06:09.151Z,31.10
2023-03-29T13:08:35.570Z,30.81
2023-03-29T13:11:01.973Z,30.78
2023-03-29T13:13:28.303Z,30.94
2023-03-29T13:15:54.731Z,31.08
2023-03-29T13:18:21.104Z,30.89
2023-03-29T13:20:47.448Z,31.30
2023-03-29T13:23:16.970Z,31.04
2023-03-29T13:28:27.665Z,30.89
2023-03-29T13:30:54.082Z,30.57
2023-03-29T13:33:20.519Z,31.08
2023-03-29T13:35:46.914Z,30.30
2023-03-29T13:38:13.400Z,30.64
2023-03-29T13:43:23.545Z,30.59
2023-03-29T13:45:49.879Z,30.57
2023-03-29T13:48:16.295Z,30.66
2023-03-29T13:50:42.667Z,30.41
2023-03-29T13:53:09.007Z,29.75
2023-03-29T13:58:29.200Z,29.77
2023-03-29T14:00:55.599Z,30.07
2023-03-29T14:03:21.998Z,29.39
2023-03-29T14:05:48.346Z,29.64
2023-03-29T14:08:14.722Z,29.52
2023-03-29T14:13:37.835Z,29.73
2023-03-29T14:16:05.462Z,29.68
2023-03-29T14:18:32.142Z,29.50
2023-03-29T14:20:58.710Z,29.35
2023-03-29T14:23:25.316Z,29.80
2023-03-29T14:28:36.451Z,29.31
2023-03-29T14:31:02.849Z,29.32
2023-03-29T14:33:29.371Z,29.81
2023-03-29T14:35:55.834Z,29.17
2023-03-29T14:38:22.232Z,29.81
2023-03-29T14:43:42.300Z,30.17
2023-03-29T14:46:08.686Z,29.88
2023-03-29T14:48:35.081Z,29.42
2023-03-29T14:51:01.490Z,29.13
2023-03-29T14:53:27.831Z,29.40
2023-03-29T14:58:37.987Z,29.21
2023-03-29T15:01:04.494Z,29.39
2023-03-29T15:03:30.950Z,30.02
2023-03-29T15:05:57.366Z,29.69
2023-03-29T15:08:23.686Z,28.95
2023-03-29T15:13:34.114Z,29.95
2023-03-29T15:16:00.650Z,29.51
2023-03-29T15:18:27.294Z,29.55
2023-03-29T15:20:53.648Z,29.97
2023-03-29T15:23:20.047Z,29.64
2023-03-29T15:25:46.410Z,29.60
2023-03-29T15:28:12.753Z,29.42
2023-03-29T15:30:39.988Z,29.96
2023-03-29T15:33:06.412Z,29.73
2023-03-29T15:35:32.863Z,29.57
2023-03-29T15:37:59.190Z,29.57
2023-03-29T15:40:25.613Z,29.81
2023-03-29T15:42:52.010Z,29.61
2023-03-29T15:45:18.377Z,29.53
2023-03-29T15:47:44.829Z,29.44
2023-03-29T15:50:11.258Z,29.83
2023-03-29T15:52:37.617Z,29.14
2023-03-29T15:55:03.980Z,29.92
2023-03-29T15:57:30.451Z,29.88
2023-03-29T15:59:56.864Z,29.66
2023-03-29T16:02:23.215Z,29.52
2023-03-29T16:04:49.724Z,29.48
2023-03-29T16:07:16.206Z,29.74
2023-03-29T16:09:42.642Z,29.72
2023-03-29T16:12:09.135Z,29.74
2023-03-29T16:14:36.482Z,29.71
2023-03-29T16:17:05.044Z,29.71
2023-03-29T16:19:32.346Z,29.64
2023-03-29T16:21:58.777Z,30.09
2023-03-29T16:24:25.277Z,29.96
2023-03-29T16:26:53.367Z,30.04
2023-03-29T16:32:15.888Z,30.06
2023-03-29T16:34:42.423Z,29.97
2023-03-29T16:37:08.904Z,29.72
2023-03-29T16:39:35.337Z,29.91
2023-03-29T16:42:01.834Z,29.76
2023-03-29T16:47:13.342Z,29.89
2023-03-29T16:49:40.289Z,29.67
2023-03-29T16:52:07.048Z,29.72
2023-03-29T16:54:33.483Z,29.87
2023-03-29T16:57:00.985Z,30.12
2023-03-29T17:02:23.199Z,29.95
2023-03-29T17:04:49.711Z,29.83
2023-03-29T17:07:16.212Z,29.84
2023-03-29T17:09:42.653Z,30.05
2023-03-29T17:12:11.806Z,29.70
2023-03-29T17:17:22.117Z,31.88
2023-03-29T17:19:48.479Z,31.81
2023-03-29T17:22:15.721Z,32.46
2023-03-29T17:24:42.216Z,33.13
2023-03-29T17:27:08.711Z,32.74
2023-03-29T17:32:30.412Z,33.56
2023-03-29T17:34:56.927Z,33.74
2023-03-29T17:37:23.386Z,33.52
2023-03-29T17:39:50.818Z,34.14
2023-03-29T17:42:17.297Z,33.61
2023-03-29T17:47:28.067Z,34.49
2023-03-29T17:49:54.538Z,34.01
2023-03-29T17:52:20.997Z,34.67
2023-03-29T17:54:48.373Z,34.95
2023-03-29T17:57:14.931Z,34.17
2023-03-29T18:02:26.537Z,35.18
2023-03-29T18:04:54.025Z,34.62
2023-03-29T18:07:20.566Z,35.35
2023-03-29T18:09:47.008Z,35.24
2023-03-29T18:12:14.400Z,34.82
2023-03-29T18:17:35.060Z,35.35
2023-03-29T18:20:02.546Z,35.06
2023-03-29T18:22:29.006Z,35.48
2023-03-29T18:24:56.423Z,35.75
2023-03-29T18:27:23.816Z,35.74
2023-03-29T18:32:36.947Z,36.65
2023-03-29T18:35:04.247Z,36.92
2023-03-29T18:37:30.918Z,37.30
2023-03-29T18:40:00.152Z,37.62
2023-03-29T18:42:26.691Z,37.42
2023-03-29T18:47:39.969Z,38.04
2023-03-29T18:50:08.287Z,37.91
2023-03-29T18:52:34.784Z,37.22
2023-03-29T18:55:01.274Z,37.46
2023-03-29T18:57:28.578Z,37.41
2023-03-29T19:02:53.800Z,36.52
2023-03-29T19:05:22.234Z,36.91
2023-03-29T19:07:50.506Z,36.52
2023-03-29T19:10:16.899Z,35.91
2023-03-29T19:12:43.316Z,36.09
2023-03-29T19:17:56.524Z,35.43
2023-03-29T19:20:23.047Z,35.59
2023-03-29T19:22:49.525Z,35.27
2023-03-29T19:25:16.982Z,35.06
2023-03-29T19:27:44.322Z,35.00
2023-03-29T19:33:06.709Z,34.95
2023-03-29T19:35:33.236Z,34.69
2023-03-29T19:37:59.697Z,34.80
2023-03-29T19:40:26.165Z,34.62
2023-03-29T19:42:52.622Z,34.81
2023-03-29T19:48:05.164Z,34.14
2023-03-29T19:50:32.478Z,34.52
2023-03-29T19:52:59.856Z,34.37
2023-03-29T19:55:26.336Z,34.35
2023-03-29T19:57:52.804Z,34.31
2023-03-29T20:00:19.283Z,33.91
2023-03-29T20:02:46.602Z,34.31
2023-03-29T20:05:13.183Z,34.02
2023-03-29T20:07:39.679Z,34.18
2023-03-29T20:10:07.042Z,34.06
2023-03-29T20:12:33.520Z,34.04
2023-03-29T20:14:59.985Z,34.32
2023-03-29T20:17:27.452Z,34.49
2023-03-29T20:19:54.857Z,34.16
2023-03-29T20:22:22.246Z,34.36
2023-03-29T20:24:49.647Z,34.26
2023-03-29T20:27:17.015Z,34.50
2023-03-29T20:29:44.354Z,34.86
2023-03-29T20:32:11.794Z,34.42
2023-03-29T20:34:38.419Z,34.96
2023-03-29T20:37:05.250Z,34.34
2023-03-29T20:39:32.774Z,34.02
2023-03-29T20:41:59.252Z,33.80
2023-03-29T20:44:25.723Z,34.11
2023-03-29T20:46:52.221Z,34.26
2023-03-29T20:49:19.613Z,34.18
2023-03-29T20:51:47.015Z,34.86
2023-03-29T20:54:13.447Z,34.37
2023-03-29T20:56:41.014Z,34.21
2023-03-29T20:59:07.481Z,34.19
2023-03-29T21:01:33.957Z,34.14
2023-03-29T21:06:56.266Z,32.54
2023-03-29T21:09:23.615Z,32.31
2023-03-29T21:11:50.833Z,32.72
2023-03-29T21:14:18.181Z,33.21
2023-03-29T21:16:45.418Z,33.48
2023-03-29T21:22:07.432Z,34.89
2023-03-29T21:24:37.411Z,34.54
2023-03-29T21:27:05.708Z,33.78
2023-03-29T21:29:32.248Z,35.04
2023-03-29T21:31:58.890Z,35.22
2023-03-29T21:37:09.321Z,35.59
2023-03-29T21:39:35.793Z,35.82
2023-03-29T21:42:02.259Z,35.84
2023-03-29T21:44:30.649Z,35.82
2023-03-29T21:46:59.425Z,35.75
2023-03-29T21:52:20.763Z,36.67
2023-03-29T21:54:47.310Z,36.15
2023-03-29T21:57:14.681Z,36.45
2023-03-29T21:59:41.098Z,36.36
2023-03-29T22:02:07.602Z,36.10
2023-03-29T22:07:19.201Z,36.44
2023-03-29T22:09:45.695Z,36.27
2023-03-29T22:12:12.138Z,36.58
2023-03-29T22:14:39.474Z,36.50
2023-03-29T22:17:06.804Z,36.54
2023-03-29T22:22:29.034Z,36.25
2023-03-29T22:24:58.965Z,36.27
2023-03-29T22:27:25.367Z,36.29
2023-03-29T22:29:51.843Z,36.07
2023-03-29T22:32:18.340Z,36.40
2023-03-29T22:37:42.791Z,36.46
2023-03-29T22:40:09.353Z,36.41
2023-03-29T22:42:36.607Z,36.30
2023-03-29T22:45:03.099Z,36.35
2023-03-29T22:47:30.432Z,36.35
2023-03-29T22:52:42.907Z,36.23
2023-03-29T22:55:10.190Z,36.38
2023-03-29T22:57:36.770Z,36.20
2023-03-29T23:00:03.266Z,36.17
2023-03-29T23:02:29.771Z,36.42
2023-03-29T23:07:50.549Z,36.47
2023-03-29T23:10:18.919Z,36.45
2023-03-29T23:12:46.193Z,36.28
2023-03-29T23:15:12.594Z,36.11
2023-03-29T23:17:39.887Z,36.66
2023-03-29T23:22:53.677Z,36.83
2023-03-29T23:25:20.168Z,36.74
2023-03-29T23:27:47.450Z,36.27
2023-03-29T23:30:14.708Z,36.58
2023-03-29T23:32:42.003Z,36.81
2023-03-29T23:37:54.531Z,36.64
2023-03-29T23:40:22.807Z,37.04
2023-03-29T23:42:49.257Z,36.78
2023-03-29T23:45:15.704Z,36.92
2023-03-29T23:47:42.969Z,37.12
2023-03-29T23:53:04.480Z,37.23
2023-03-29T23:55:33.705Z,36.97
2023-03-29T23:58:02.050Z,37.28
